sensor_id;sensor_type;location;lat;lon;timestamp;P1;durP1;ratioP1;P2;durP2;ratioP2
10939;SDS011;5522;42.696;23.494;2023-07-22T00:01:32;1.40;;;0.98;;
10939;SDS011;5522;42.696;23.494;2023-07-22T00:03:59;3.50;;;1.00;;
10939;SDS011;5522;42.696;23.494;2023-07-22T00:06:26;3.00;;;1.05;;
10939;SDS011;5522;42.696;23.494;2023-07-22T00:08:53;3.58;;;0.90;;
10939;SDS011;5522;42.696;23.494;2023-07-22T00:11:20;3.08;;;1.10;;
10939;SDS011;5522;42.696;23.494;2023-07-22T00:13:48;3.63;;;1.02;;
10939;SDS011;5522;42.696;23.494;2023-07-22T00:16:15;5.38;;;1.35;;
10939;SDS011;5522;42.696;23.494;2023-07-22T00:18:42;4.07;;;1.10;;
10939;SDS011;5522;42.696;23.494;2023-07-22T00:21:09;5.97;;;1.30;;
10939;SDS011;5522;42.696;23.494;2023-07-22T00:23:36;3.47;;;0.90;;
10939;SDS011;5522;42.696;23.494;2023-07-22T00:26:03;5.10;;;1.38;;
10939;SDS011;5522;42.696;23.494;2023-07-22T00:28:30;2.90;;;1.15;;
10939;SDS011;5522;42.696;23.494;2023-07-22T00:30:58;3.63;;;0.85;;
10939;SDS011;5522;42.696;23.494;2023-07-22T00:33:25;1.25;;;0.90;;
10939;SDS011;5522;42.696;23.494;2023-07-22T00:35:52;2.42;;;1.30;;
10939;SDS011;5522;42.696;23.494;2023-07-22T00:38:19;1.15;;;1.10;;
10939;SDS011;5522;42.696;23.494;2023-07-22T00:40:46;4.97;;;1.20;;
10939;SDS011;5522;42.696;23.494;2023-07-22T00:43:14;1.60;;;1.60;;
10939;SDS011;5522;42.696;23.494;2023-07-22T00:45:41;1.95;;;1.15;;
10939;SDS011;5522;42.696;23.494;2023-07-22T00:48:10;4.47;;;1.08;;
10939;SDS011;5522;42.696;23.494;2023-07-22T00:50:39;7.22;;;1.20;;
10939;SDS011;5522;42.696;23.494;2023-07-22T00:53:06;2.42;;;1.30;;
10939;SDS011;5522;42.696;23.494;2023-07-22T00:55:33;3.70;;;1.05;;
10939;SDS011;5522;42.696;23.494;2023-07-22T00:58:01;2.60;;;1.45;;
10939;SDS011;5522;42.696;23.494;2023-07-22T01:08:08;4.18;;;1.13;;
10939;SDS011;5522;42.696;23.494;2023-07-22T01:10:35;5.57;;;1.80;;
10939;SDS011;5522;42.696;23.494;2023-07-22T01:13:01;6.68;;;1.77;;
10939;SDS011;5522;42.696;23.494;2023-07-22T01:15:29;2.08;;;1.40;;
10939;SDS011;5522;42.696;23.494;2023-07-22T01:17:57;5.80;;;1.67;;
10939;SDS011;5522;42.696;23.494;2023-07-22T01:20:26;4.93;;;1.60;;
10939;SDS011;5522;42.696;23.494;2023-07-22T01:22:55;2.83;;;1.48;;
10939;SDS011;5522;42.696;23.494;2023-07-22T01:25:23;3.67;;;1.50;;
10939;SDS011;5522;42.696;23.494;2023-07-22T01:27:50;3.60;;;1.42;;
10939;SDS011;5522;42.696;23.494;2023-07-22T01:30:17;2.13;;;1.10;;
10939;SDS011;5522;42.696;23.494;2023-07-22T01:32:44;5.57;;;1.67;;
10939;SDS011;5522;42.696;23.494;2023-07-22T01:35:11;1.42;;;1.10;;
10939;SDS011;5522;42.696;23.494;2023-07-22T01:37:38;6.22;;;1.45;;
10939;SDS011;5522;42.696;23.494;2023-07-22T01:40:08;4.13;;;1.40;;
10939;SDS011;5522;42.696;23.494;2023-07-22T01:42:37;2.50;;;1.30;;
10939;SDS011;5522;42.696;23.494;2023-07-22T01:45:05;4.25;;;1.25;;
10939;SDS011;5522;42.696;23.494;2023-07-22T01:47:33;3.08;;;1.70;;
10939;SDS011;5522;42.696;23.494;2023-07-22T01:50:01;2.25;;;1.00;;
10939;SDS011;5522;42.696;23.494;2023-07-22T01:52:28;5.40;;;1.23;;
10939;SDS011;5522;42.696;23.494;2023-07-22T01:54:54;4.13;;;1.42;;
10939;SDS011;5522;42.696;23.494;2023-07-22T01:57:23;5.07;;;1.50;;
10939;SDS011;5522;42.696;23.494;2023-07-22T01:59:50;3.33;;;1.85;;
10939;SDS011;5522;42.696;23.494;2023-07-22T02:02:17;2.58;;;1.60;;
10939;SDS011;5522;42.696;23.494;2023-07-22T02:04:43;2.45;;;1.30;;
10939;SDS011;5522;42.696;23.494;2023-07-22T02:07:10;4.07;;;1.02;;
10939;SDS011;5522;42.696;23.494;2023-07-22T02:09:37;3.35;;;1.40;;
10939;SDS011;5522;42.696;23.494;2023-07-22T02:12:04;2.33;;;1.40;;
10939;SDS011;5522;42.696;23.494;2023-07-22T02:14:34;3.15;;;1.52;;
10939;SDS011;5522;42.696;23.494;2023-07-22T02:17:02;3.45;;;2.22;;
10939;SDS011;5522;42.696;23.494;2023-07-22T02:19:29;1.95;;;1.80;;
10939;SDS011;5522;42.696;23.494;2023-07-22T02:21:55;3.53;;;1.77;;
10939;SDS011;5522;42.696;23.494;2023-07-22T02:24:22;6.28;;;1.52;;
10939;SDS011;5522;42.696;23.494;2023-07-22T02:26:49;2.60;;;1.42;;
10939;SDS011;5522;42.696;23.494;2023-07-22T02:29:16;5.47;;;2.15;;
10939;SDS011;5522;42.696;23.494;2023-07-22T02:31:46;1.90;;;1.65;;
10939;SDS011;5522;42.696;23.494;2023-07-22T02:34:13;4.40;;;2.35;;
10939;SDS011;5522;42.696;23.494;2023-07-22T02:36:40;7.28;;;2.17;;
10939;SDS011;5522;42.696;23.494;2023-07-22T02:39:06;4.20;;;2.33;;
10939;SDS011;5522;42.696;23.494;2023-07-22T02:41:35;3.78;;;1.98;;
10939;SDS011;5522;42.696;23.494;2023-07-22T02:44:02;2.72;;;1.80;;
10939;SDS011;5522;42.696;23.494;2023-07-22T02:46:29;1.92;;;1.45;;
10939;SDS011;5522;42.696;23.494;2023-07-22T02:48:57;2.38;;;1.98;;
10939;SDS011;5522;42.696;23.494;2023-07-22T02:51:25;4.88;;;2.08;;
10939;SDS011;5522;42.696;23.494;2023-07-22T02:53:52;2.25;;;1.92;;
10939;SDS011;5522;42.696;23.494;2023-07-22T02:56:19;4.05;;;2.03;;
10939;SDS011;5522;42.696;23.494;2023-07-22T02:58:45;3.42;;;1.58;;
10939;SDS011;5522;42.696;23.494;2023-07-22T03:01:11;7.13;;;2.35;;
10939;SDS011;5522;42.696;23.494;2023-07-22T03:03:38;3.13;;;2.10;;
10939;SDS011;5522;42.696;23.494;2023-07-22T03:06:07;2.47;;;1.73;;
10939;SDS011;5522;42.696;23.494;2023-07-22T03:08:34;3.22;;;1.88;;
10939;SDS011;5522;42.696;23.494;2023-07-22T03:11:01;2.38;;;1.52;;
10939;SDS011;5522;42.696;23.494;2023-07-22T03:13:29;2.85;;;1.80;;
10939;SDS011;5522;42.696;23.494;2023-07-22T03:15:56;2.92;;;2.03;;
10939;SDS011;5522;42.696;23.494;2023-07-22T03:18:23;2.08;;;1.98;;
10939;SDS011;5522;42.696;23.494;2023-07-22T03:20:50;1.92;;;1.80;;
10939;SDS011;5522;42.696;23.494;2023-07-22T03:23:19;3.22;;;1.92;;
10939;SDS011;5522;42.696;23.494;2023-07-22T03:25:46;3.70;;;1.95;;
10939;SDS011;5522;42.696;23.494;2023-07-22T03:28:13;5.53;;;2.10;;
10939;SDS011;5522;42.696;23.494;2023-07-22T03:30:41;5.22;;;2.08;;
10939;SDS011;5522;42.696;23.494;2023-07-22T03:33:08;6.55;;;2.60;;
10939;SDS011;5522;42.696;23.494;2023-07-22T03:35:35;1.92;;;1.83;;
10939;SDS011;5522;42.696;23.494;2023-07-22T03:38:02;4.72;;;1.70;;
10939;SDS011;5522;42.696;23.494;2023-07-22T03:40:31;2.42;;;2.25;;
10939;SDS011;5522;42.696;23.494;2023-07-22T03:42:58;4.10;;;2.17;;
10939;SDS011;5522;42.696;23.494;2023-07-22T03:45:25;2.22;;;2.05;;
10939;SDS011;5522;42.696;23.494;2023-07-22T03:47:52;4.28;;;2.30;;
10939;SDS011;5522;42.696;23.494;2023-07-22T03:50:21;4.32;;;2.03;;
10939;SDS011;5522;42.696;23.494;2023-07-22T03:52:48;3.25;;;2.00;;
10939;SDS011;5522;42.696;23.494;2023-07-22T03:55:15;2.08;;;1.90;;
10939;SDS011;5522;42.696;23.494;2023-07-22T03:57:43;3.70;;;1.80;;
10939;SDS011;5522;42.696;23.494;2023-07-22T04:00:10;6.40;;;2.03;;
10939;SDS011;5522;42.696;23.494;2023-07-22T04:02:37;5.03;;;2.17;;
10939;SDS011;5522;42.696;23.494;2023-07-22T04:05:05;3.83;;;2.17;;
10939;SDS011;5522;42.696;23.494;2023-07-22T04:07:32;6.10;;;1.67;;
10939;SDS011;5522;42.696;23.494;2023-07-22T04:09:59;1.55;;;1.23;;
10939;SDS011;5522;42.696;23.494;2023-07-22T04:12:26;2.45;;;1.50;;
10939;SDS011;5522;42.696;23.494;2023-07-22T04:14:55;1.67;;;1.48;;
10939;SDS011;5522;42.696;23.494;2023-07-22T04:17:22;2.88;;;1.45;;
10939;SDS011;5522;42.696;23.494;2023-07-22T04:19:50;3.70;;;1.52;;
10939;SDS011;5522;42.696;23.494;2023-07-22T04:22:18;6.72;;;1.38;;
10939;SDS011;5522;42.696;23.494;2023-07-22T04:24:45;3.03;;;1.00;;
10939;SDS011;5522;42.696;23.494;2023-07-22T04:27:13;1.17;;;1.13;;
10939;SDS011;5522;42.696;23.494;2023-07-22T04:29:41;3.97;;;1.20;;
10939;SDS011;5522;42.696;23.494;2023-07-22T04:32:09;3.60;;;1.48;;
10939;SDS011;5522;42.696;23.494;2023-07-22T04:34:36;1.33;;;1.20;;
10939;SDS011;5522;42.696;23.494;2023-07-22T04:37:04;3.50;;;1.00;;
10939;SDS011;5522;42.696;23.494;2023-07-22T04:39:31;3.75;;;1.30;;
10939;SDS011;5522;42.696;23.494;2023-07-22T04:41:59;4.53;;;1.08;;
10939;SDS011;5522;42.696;23.494;2023-07-22T04:44:26;3.25;;;1.10;;
10939;SDS011;5522;42.696;23.494;2023-07-22T04:46:53;4.63;;;1.00;;
10939;SDS011;5522;42.696;23.494;2023-07-22T04:49:21;2.97;;;1.17;;
10939;SDS011;5522;42.696;23.494;2023-07-22T04:51:48;4.25;;;1.00;;
10939;SDS011;5522;42.696;23.494;2023-07-22T04:54:16;5.60;;;1.30;;
10939;SDS011;5522;42.696;23.494;2023-07-22T04:56:43;1.65;;;0.90;;
10939;SDS011;5522;42.696;23.494;2023-07-22T04:59:10;2.15;;;1.33;;
10939;SDS011;5522;42.696;23.494;2023-07-22T05:01:38;1.77;;;1.10;;
10939;SDS011;5522;42.696;23.494;2023-07-22T05:04:05;3.30;;;1.30;;
10939;SDS011;5522;42.696;23.494;2023-07-22T05:06:33;1.90;;;1.10;;
10939;SDS011;5522;42.696;23.494;2023-07-22T05:09:01;1.05;;;0.95;;
10939;SDS011;5522;42.696;23.494;2023-07-22T05:11:28;5.93;;;1.17;;
10939;SDS011;5522;42.696;23.494;2023-07-22T05:13:55;1.80;;;1.00;;
10939;SDS011;5522;42.696;23.494;2023-07-22T05:16:22;2.92;;;1.00;;
10939;SDS011;5522;42.696;23.494;2023-07-22T05:18:49;2.00;;;1.02;;
10939;SDS011;5522;42.696;23.494;2023-07-22T05:21:15;2.15;;;0.82;;
10939;SDS011;5522;42.696;23.494;2023-07-22T05:23:44;4.57;;;1.20;;
10939;SDS011;5522;42.696;23.494;2023-07-22T05:26:11;1.77;;;1.20;;
10939;SDS011;5522;42.696;23.494;2023-07-22T05:28:37;2.38;;;0.80;;
10939;SDS011;5522;42.696;23.494;2023-07-22T05:31:04;1.98;;;0.80;;
10939;SDS011;5522;42.696;23.494;2023-07-22T05:33:31;1.65;;;0.80;;
10939;SDS011;5522;42.696;23.494;2023-07-22T05:35:58;1.02;;;0.93;;
10939;SDS011;5522;42.696;23.494;2023-07-22T05:38:25;4.50;;;1.10;;
10939;SDS011;5522;42.696;23.494;2023-07-22T05:40:53;1.95;;;0.77;;
10939;SDS011;5522;42.696;23.494;2023-07-22T05:43:20;2.03;;;1.10;;
10939;SDS011;5522;42.696;23.494;2023-07-22T05:45:47;2.10;;;1.08;;
10939;SDS011;5522;42.696;23.494;2023-07-22T05:48:14;2.08;;;0.93;;
10939;SDS011;5522;42.696;23.494;2023-07-22T05:50:41;1.60;;;0.85;;
10939;SDS011;5522;42.696;23.494;2023-07-22T05:53:08;2.38;;;1.10;;
10939;SDS011;5522;42.696;23.494;2023-07-22T05:55:35;2.83;;;0.90;;
10939;SDS011;5522;42.696;23.494;2023-07-22T05:58:03;1.10;;;0.80;;
10939;SDS011;5522;42.696;23.494;2023-07-22T06:00:31;3.20;;;0.90;;
10939;SDS011;5522;42.696;23.494;2023-07-22T06:02:59;1.42;;;1.10;;
10939;SDS011;5522;42.696;23.494;2023-07-22T06:05:25;2.67;;;1.00;;
10939;SDS011;5522;42.696;23.494;2023-07-22T06:07:52;3.17;;;1.10;;
10939;SDS011;5522;42.696;23.494;2023-07-22T06:10:22;1.95;;;1.17;;
10939;SDS011;5522;42.696;23.494;2023-07-22T06:12:49;3.63;;;0.98;;
10939;SDS011;5522;42.696;23.494;2023-07-22T06:15:17;2.50;;;1.25;;
10939;SDS011;5522;42.696;23.494;2023-07-22T06:17:44;2.90;;;1.33;;
10939;SDS011;5522;42.696;23.494;2023-07-22T06:20:11;1.02;;;0.88;;
10939;SDS011;5522;42.696;23.494;2023-07-22T06:22:38;3.50;;;1.17;;
10939;SDS011;5522;42.696;23.494;2023-07-22T06:25:05;7.35;;;1.48;;
10939;SDS011;5522;42.696;23.494;2023-07-22T06:27:33;2.30;;;1.08;;
10939;SDS011;5522;42.696;23.494;2023-07-22T06:29:59;4.53;;;1.20;;
10939;SDS011;5522;42.696;23.494;2023-07-22T06:32:28;3.60;;;1.48;;
10939;SDS011;5522;42.696;23.494;2023-07-22T06:34:55;3.55;;;1.40;;
10939;SDS011;5522;42.696;23.494;2023-07-22T06:37:22;3.63;;;1.08;;
10939;SDS011;5522;42.696;23.494;2023-07-22T06:39:50;1.20;;;1.10;;
10939;SDS011;5522;42.696;23.494;2023-07-22T06:42:16;3.92;;;1.13;;
10939;SDS011;5522;42.696;23.494;2023-07-22T06:44:43;2.42;;;1.20;;
10939;SDS011;5522;42.696;23.494;2023-07-22T06:47:10;3.00;;;1.00;;
10939;SDS011;5522;42.696;23.494;2023-07-22T06:49:38;3.80;;;1.40;;
10939;SDS011;5522;42.696;23.494;2023-07-22T06:52:06;2.67;;;1.40;;
10939;SDS011;5522;42.696;23.494;2023-07-22T06:54:34;1.85;;;1.40;;
10939;SDS011;5522;42.696;23.494;2023-07-22T06:57:01;3.05;;;1.00;;
10939;SDS011;5522;42.696;23.494;2023-07-22T06:59:28;1.40;;;0.90;;
10939;SDS011;5522;42.696;23.494;2023-07-22T07:01:55;8.40;;;1.17;;
10939;SDS011;5522;42.696;23.494;2023-07-22T07:04:22;4.22;;;1.50;;
10939;SDS011;5522;42.696;23.494;2023-07-22T07:06:50;3.90;;;1.25;;
10939;SDS011;5522;42.696;23.494;2023-07-22T07:09:17;2.40;;;1.20;;
10939;SDS011;5522;42.696;23.494;2023-07-22T07:11:44;10.90;;;1.30;;
10939;SDS011;5522;42.696;23.494;2023-07-22T07:14:11;8.10;;;1.25;;
10939;SDS011;5522;42.696;23.494;2023-07-22T07:16:38;1.77;;;1.10;;
10939;SDS011;5522;42.696;23.494;2023-07-22T07:19:05;4.65;;;1.15;;
10939;SDS011;5522;42.696;23.494;2023-07-22T07:21:32;5.47;;;1.27;;
10939;SDS011;5522;42.696;23.494;2023-07-22T07:24:00;2.13;;;1.27;;
10939;SDS011;5522;42.696;23.494;2023-07-22T07:26:27;6.97;;;1.10;;
10939;SDS011;5522;42.696;23.494;2023-07-22T07:28:54;1.67;;;1.15;;
10939;SDS011;5522;42.696;23.494;2023-07-22T07:31:21;2.80;;;1.20;;
10939;SDS011;5522;42.696;23.494;2023-07-22T07:33:48;3.92;;;1.20;;
10939;SDS011;5522;42.696;23.494;2023-07-22T07:36:14;3.90;;;1.30;;
10939;SDS011;5522;42.696;23.494;2023-07-22T07:38:41;3.78;;;1.25;;
10939;SDS011;5522;42.696;23.494;2023-07-22T07:41:09;3.58;;;1.33;;
10939;SDS011;5522;42.696;23.494;2023-07-22T07:43:37;4.07;;;1.63;;
10939;SDS011;5522;42.696;23.494;2023-07-22T07:46:17;4.28;;;1.23;;
10939;SDS011;5522;42.696;23.494;2023-07-22T07:48:47;4.60;;;1.50;;
10939;SDS011;5522;42.696;23.494;2023-07-22T07:51:15;4.85;;;1.30;;
10939;SDS011;5522;42.696;23.494;2023-07-22T07:53:43;4.38;;;1.17;;
10939;SDS011;5522;42.696;23.494;2023-07-22T07:56:11;6.40;;;1.42;;
10939;SDS011;5522;42.696;23.494;2023-07-22T07:58:39;2.10;;;1.35;;
10939;SDS011;5522;42.696;23.494;2023-07-22T08:01:06;3.80;;;1.63;;
10939;SDS011;5522;42.696;23.494;2023-07-22T08:03:34;4.43;;;1.55;;
10939;SDS011;5522;42.696;23.494;2023-07-22T08:06:03;4.47;;;1.60;;
10939;SDS011;5522;42.696;23.494;2023-07-22T08:08:31;6.07;;;1.88;;
10939;SDS011;5522;42.696;23.494;2023-07-22T08:10:59;9.73;;;1.20;;
10939;SDS011;5522;42.696;23.494;2023-07-22T08:13:28;7.80;;;1.20;;
10939;SDS011;5522;42.696;23.494;2023-07-22T08:15:56;6.55;;;1.48;;
10939;SDS011;5522;42.696;23.494;2023-07-22T08:18:23;3.90;;;1.45;;
10939;SDS011;5522;42.696;23.494;2023-07-22T08:20:51;5.75;;;1.80;;
10939;SDS011;5522;42.696;23.494;2023-07-22T08:23:19;5.57;;;1.40;;
10939;SDS011;5522;42.696;23.494;2023-07-22T08:25:46;2.90;;;1.30;;
10939;SDS011;5522;42.696;23.494;2023-07-22T08:28:13;8.15;;;1.63;;
10939;SDS011;5522;42.696;23.494;2023-07-22T08:30:42;3.55;;;1.75;;
10939;SDS011;5522;42.696;23.494;2023-07-22T08:33:09;3.80;;;1.50;;
10939;SDS011;5522;42.696;23.494;2023-07-22T08:35:37;6.60;;;2.17;;
10939;SDS011;5522;42.696;23.494;2023-07-22T08:38:04;6.28;;;2.00;;
10939;SDS011;5522;42.696;23.494;2023-07-22T08:40:34;3.97;;;1.60;;
10939;SDS011;5522;42.696;23.494;2023-07-22T08:43:02;3.45;;;1.63;;
10939;SDS011;5522;42.696;23.494;2023-07-22T08:45:30;3.38;;;1.67;;
10939;SDS011;5522;42.696;23.494;2023-07-22T08:48:02;7.43;;;2.00;;
10939;SDS011;5522;42.696;23.494;2023-07-22T08:50:33;7.40;;;1.80;;
10939;SDS011;5522;42.696;23.494;2023-07-22T08:53:03;8.20;;;1.75;;
10939;SDS011;5522;42.696;23.494;2023-07-22T08:55:31;4.18;;;1.73;;
10939;SDS011;5522;42.696;23.494;2023-07-22T08:57:59;4.80;;;1.55;;
10939;SDS011;5522;42.696;23.494;2023-07-22T09:00:27;4.00;;;1.95;;
10939;SDS011;5522;42.696;23.494;2023-07-22T09:02:54;7.88;;;1.73;;
10939;SDS011;5522;42.696;23.494;2023-07-22T09:05:23;5.03;;;2.17;;
10939;SDS011;5522;42.696;23.494;2023-07-22T09:07:50;3.80;;;1.55;;
10939;SDS011;5522;42.696;23.494;2023-07-22T09:10:17;2.50;;;1.42;;
10939;SDS011;5522;42.696;23.494;2023-07-22T09:12:45;4.53;;;1.90;;
10939;SDS011;5522;42.696;23.494;2023-07-22T09:15:13;6.40;;;2.65;;
10939;SDS011;5522;42.696;23.494;2023-07-22T09:17:41;4.93;;;1.40;;
10939;SDS011;5522;42.696;23.494;2023-07-22T09:20:08;4.78;;;2.15;;
10939;SDS011;5522;42.696;23.494;2023-07-22T09:22:42;2.63;;;1.65;;
10939;SDS011;5522;42.696;23.494;2023-07-22T09:25:13;5.50;;;2.10;;
10939;SDS011;5522;42.696;23.494;2023-07-22T09:27:41;8.88;;;1.90;;
10939;SDS011;5522;42.696;23.494;2023-07-22T09:32:55;10.65;;;1.88;;
10939;SDS011;5522;42.696;23.494;2023-07-22T09:35:23;3.58;;;1.58;;
10939;SDS011;5522;42.696;23.494;2023-07-22T09:37:53;8.68;;;2.47;;
10939;SDS011;5522;42.696;23.494;2023-07-22T09:40:21;7.13;;;2.10;;
10939;SDS011;5522;42.696;23.494;2023-07-22T09:42:49;13.57;;;2.40;;
10939;SDS011;5522;42.696;23.494;2023-07-22T09:45:17;6.45;;;1.38;;
10939;SDS011;5522;42.696;23.494;2023-07-22T09:47:45;10.68;;;2.40;;
10939;SDS011;5522;42.696;23.494;2023-07-22T09:50:14;3.20;;;1.20;;
10939;SDS011;5522;42.696;23.494;2023-07-22T09:52:45;9.60;;;2.13;;
10939;SDS011;5522;42.696;23.494;2023-07-22T09:55:16;9.05;;;2.50;;
10939;SDS011;5522;42.696;23.494;2023-07-22T09:57:45;5.07;;;2.28;;
10939;SDS011;5522;42.696;23.494;2023-07-22T10:00:14;11.07;;;2.22;;
10939;SDS011;5522;42.696;23.494;2023-07-22T10:02:43;5.70;;;2.63;;
10939;SDS011;5522;42.696;23.494;2023-07-22T10:05:14;3.95;;;2.20;;
10939;SDS011;5522;42.696;23.494;2023-07-22T10:07:43;9.32;;;2.58;;
10939;SDS011;5522;42.696;23.494;2023-07-22T10:10:11;13.70;;;2.83;;
10939;SDS011;5522;42.696;23.494;2023-07-22T10:12:41;16.80;;;5.35;;
10939;SDS011;5522;42.696;23.494;2023-07-22T10:15:09;6.85;;;3.15;;
10939;SDS011;5522;42.696;23.494;2023-07-22T10:17:37;7.10;;;2.95;;
10939;SDS011;5522;42.696;23.494;2023-07-22T10:20:05;8.18;;;2.33;;
10939;SDS011;5522;42.696;23.494;2023-07-22T10:22:35;11.70;;;2.53;;
10939;SDS011;5522;42.696;23.494;2023-07-22T10:25:04;13.85;;;2.92;;
10939;SDS011;5522;42.696;23.494;2023-07-22T10:27:32;20.80;;;3.60;;
10939;SDS011;5522;42.696;23.494;2023-07-22T10:30:02;6.07;;;2.30;;
10939;SDS011;5522;42.696;23.494;2023-07-22T10:32:33;14.27;;;2.85;;
10939;SDS011;5522;42.696;23.494;2023-07-22T10:35:02;6.85;;;2.55;;
10939;SDS011;5522;42.696;23.494;2023-07-22T10:37:30;10.30;;;2.50;;
10939;SDS011;5522;42.696;23.494;2023-07-22T10:40:01;12.18;;;2.75;;
10939;SDS011;5522;42.696;23.494;2023-07-22T10:42:50;17.77;;;2.63;;
10939;SDS011;5522;42.696;23.494;2023-07-22T10:45:26;7.57;;;2.58;;
10939;SDS011;5522;42.696;23.494;2023-07-22T10:48:01;10.95;;;2.72;;
10939;SDS011;5522;42.696;23.494;2023-07-22T10:50:42;15.43;;;2.85;;
10939;SDS011;5522;42.696;23.494;2023-07-22T10:53:12;13.05;;;3.22;;
10939;SDS011;5522;42.696;23.494;2023-07-22T11:01:34;14.00;;;2.65;;
10939;SDS011;5522;42.696;23.494;2023-07-22T11:04:08;12.70;;;2.70;;
10939;SDS011;5522;42.696;23.494;2023-07-22T11:06:39;14.40;;;3.47;;
10939;SDS011;5522;42.696;23.494;2023-07-22T11:09:33;17.08;;;3.33;;
10939;SDS011;5522;42.696;23.494;2023-07-22T11:12:01;13.50;;;2.95;;
10939;SDS011;5522;42.696;23.494;2023-07-22T11:14:30;12.43;;;2.90;;
10939;SDS011;5522;42.696;23.494;2023-07-22T11:17:00;8.02;;;2.53;;
10939;SDS011;5522;42.696;23.494;2023-07-22T11:19:29;15.18;;;3.17;;
10939;SDS011;5522;42.696;23.494;2023-07-22T11:21:56;17.40;;;2.97;;
10939;SDS011;5522;42.696;23.494;2023-07-22T11:24:23;16.88;;;2.58;;
10939;SDS011;5522;42.696;23.494;2023-07-22T11:26:51;10.55;;;2.67;;
10939;SDS011;5522;42.696;23.494;2023-07-22T11:29:18;17.17;;;3.13;;
10939;SDS011;5522;42.696;23.494;2023-07-22T11:31:46;13.45;;;3.45;;
10939;SDS011;5522;42.696;23.494;2023-07-22T11:34:15;14.48;;;3.20;;
10939;SDS011;5522;42.696;23.494;2023-07-22T11:36:43;16.73;;;3.83;;
10939;SDS011;5522;42.696;23.494;2023-07-22T11:39:11;9.65;;;3.10;;
10939;SDS011;5522;42.696;23.494;2023-07-22T11:41:39;12.98;;;2.97;;
10939;SDS011;5522;42.696;23.494;2023-07-22T11:44:08;15.57;;;3.25;;
10939;SDS011;5522;42.696;23.494;2023-07-22T11:46:46;14.70;;;3.20;;
10939;SDS011;5522;42.696;23.494;2023-07-22T11:49:15;11.98;;;2.53;;
10939;SDS011;5522;42.696;23.494;2023-07-22T11:51:48;14.80;;;2.67;;
10939;SDS011;5522;42.696;23.494;2023-07-22T11:54:15;16.38;;;3.03;;
10939;SDS011;5522;42.696;23.494;2023-07-22T11:56:42;16.42;;;2.47;;
10939;SDS011;5522;42.696;23.494;2023-07-22T11:59:09;17.83;;;2.63;;
10939;SDS011;5522;42.696;23.494;2023-07-22T12:01:36;13.75;;;2.25;;
10939;SDS011;5522;42.696;23.494;2023-07-22T12:04:03;15.85;;;2.65;;
10939;SDS011;5522;42.696;23.494;2023-07-22T12:06:38;20.60;;;2.58;;
10939;SDS011;5522;42.696;23.494;2023-07-22T12:09:06;22.30;;;2.90;;
10939;SDS011;5522;42.696;23.494;2023-07-22T12:11:34;17.92;;;2.65;;
10939;SDS011;5522;42.696;23.494;2023-07-22T12:14:06;21.00;;;2.50;;
10939;SDS011;5522;42.696;23.494;2023-07-22T12:16:34;17.83;;;2.50;;
10939;SDS011;5522;42.696;23.494;2023-07-22T12:19:01;15.13;;;2.15;;
10939;SDS011;5522;42.696;23.494;2023-07-22T12:21:29;14.60;;;2.63;;
10939;SDS011;5522;42.696;23.494;2023-07-22T12:23:57;18.20;;;2.63;;
10939;SDS011;5522;42.696;23.494;2023-07-22T12:26:25;12.75;;;2.22;;
10939;SDS011;5522;42.696;23.494;2023-07-22T12:28:51;23.40;;;2.83;;
10939;SDS011;5522;42.696;23.494;2023-07-22T12:31:19;18.17;;;2.50;;
10939;SDS011;5522;42.696;23.494;2023-07-22T12:33:45;18.02;;;2.53;;
10939;SDS011;5522;42.696;23.494;2023-07-22T12:36:12;12.95;;;2.63;;
10939;SDS011;5522;42.696;23.494;2023-07-22T12:38:39;11.18;;;1.90;;
10939;SDS011;5522;42.696;23.494;2023-07-22T12:41:07;17.40;;;2.22;;
10939;SDS011;5522;42.696;23.494;2023-07-22T12:43:34;17.92;;;2.85;;
10939;SDS011;5522;42.696;23.494;2023-07-22T12:46:01;12.32;;;2.20;;
10939;SDS011;5522;42.696;23.494;2023-07-22T12:48:27;19.52;;;2.35;;
10939;SDS011;5522;42.696;23.494;2023-07-22T12:50:55;12.20;;;2.60;;
10939;SDS011;5522;42.696;23.494;2023-07-22T12:53:22;16.98;;;2.75;;
10939;SDS011;5522;42.696;23.494;2023-07-22T12:55:49;16.65;;;2.22;;
10939;SDS011;5522;42.696;23.494;2023-07-22T12:58:17;10.10;;;2.13;;
10939;SDS011;5522;42.696;23.494;2023-07-22T13:00:44;14.55;;;2.38;;
10939;SDS011;5522;42.696;23.494;2023-07-22T13:03:10;16.63;;;2.13;;
10939;SDS011;5522;42.696;23.494;2023-07-22T13:05:37;15.05;;;2.83;;
10939;SDS011;5522;42.696;23.494;2023-07-22T13:08:04;22.33;;;2.78;;
10939;SDS011;5522;42.696;23.494;2023-07-22T13:10:31;17.65;;;2.15;;
10939;SDS011;5522;42.696;23.494;2023-07-22T13:13:02;15.02;;;2.33;;
10939;SDS011;5522;42.696;23.494;2023-07-22T13:15:31;21.38;;;3.38;;
10939;SDS011;5522;42.696;23.494;2023-07-22T13:17:58;13.77;;;2.25;;
10939;SDS011;5522;42.696;23.494;2023-07-22T13:20:25;18.33;;;2.70;;
10939;SDS011;5522;42.696;23.494;2023-07-22T13:22:52;14.75;;;2.40;;
10939;SDS011;5522;42.696;23.494;2023-07-22T13:25:19;14.30;;;1.90;;
10939;SDS011;5522;42.696;23.494;2023-07-22T13:27:45;20.33;;;2.22;;
10939;SDS011;5522;42.696;23.494;2023-07-22T13:30:13;23.48;;;2.33;;
10939;SDS011;5522;42.696;23.494;2023-07-22T13:32:41;17.27;;;2.45;;
10939;SDS011;5522;42.696;23.494;2023-07-22T13:35:08;16.08;;;2.70;;
10939;SDS011;5522;42.696;23.494;2023-07-22T13:37:35;17.40;;;2.58;;
10939;SDS011;5522;42.696;23.494;2023-07-22T13:40:03;14.68;;;2.35;;
10939;SDS011;5522;42.696;23.494;2023-07-22T13:42:35;16.55;;;2.50;;
10939;SDS011;5522;42.696;23.494;2023-07-22T13:45:02;15.45;;;2.70;;
10939;SDS011;5522;42.696;23.494;2023-07-22T13:47:29;18.80;;;2.17;;
10939;SDS011;5522;42.696;23.494;2023-07-22T13:49:57;17.48;;;2.40;;
10939;SDS011;5522;42.696;23.494;2023-07-22T13:52:24;16.58;;;2.65;;
10939;SDS011;5522;42.696;23.494;2023-07-22T13:54:51;14.23;;;2.25;;
10939;SDS011;5522;42.696;23.494;2023-07-22T13:57:18;18.48;;;2.22;;
10939;SDS011;5522;42.696;23.494;2023-07-22T13:59:45;16.13;;;1.88;;
10939;SDS011;5522;42.696;23.494;2023-07-22T14:02:12;20.30;;;3.00;;
10939;SDS011;5522;42.696;23.494;2023-07-22T14:04:38;17.60;;;2.63;;
10939;SDS011;5522;42.696;23.494;2023-07-22T14:07:07;21.02;;;2.58;;
10939;SDS011;5522;42.696;23.494;2023-07-22T14:09:34;17.30;;;2.10;;
10939;SDS011;5522;42.696;23.494;2023-07-22T14:12:00;11.88;;;1.85;;
10939;SDS011;5522;42.696;23.494;2023-07-22T14:14:28;26.38;;;2.75;;
10939;SDS011;5522;42.696;23.494;2023-07-22T14:16:55;22.20;;;2.88;;
10939;SDS011;5522;42.696;23.494;2023-07-22T14:19:21;21.25;;;2.58;;
10939;SDS011;5522;42.696;23.494;2023-07-22T14:21:49;28.75;;;2.42;;
10939;SDS011;5522;42.696;23.494;2023-07-22T14:24:18;20.25;;;2.10;;
10939;SDS011;5522;42.696;23.494;2023-07-22T14:26:44;18.27;;;2.00;;
10939;SDS011;5522;42.696;23.494;2023-07-22T14:29:12;15.75;;;2.60;;
10939;SDS011;5522;42.696;23.494;2023-07-22T14:31:41;18.00;;;2.25;;
10939;SDS011;5522;42.696;23.494;2023-07-22T14:34:08;14.98;;;1.80;;
10939;SDS011;5522;42.696;23.494;2023-07-22T14:36:35;18.35;;;2.33;;
10939;SDS011;5522;42.696;23.494;2023-07-22T14:39:02;14.75;;;2.10;;
10939;SDS011;5522;42.696;23.494;2023-07-22T14:41:30;21.58;;;2.42;;
10939;SDS011;5522;42.696;23.494;2023-07-22T14:43:57;16.42;;;2.20;;
10939;SDS011;5522;42.696;23.494;2023-07-22T14:46:24;22.50;;;2.25;;
10939;SDS011;5522;42.696;23.494;2023-07-22T14:48:51;16.38;;;1.75;;
10939;SDS011;5522;42.696;23.494;2023-07-22T14:51:17;25.00;;;2.55;;
10939;SDS011;5522;42.696;23.494;2023-07-22T14:53:44;15.40;;;1.92;;
10939;SDS011;5522;42.696;23.494;2023-07-22T14:56:12;13.43;;;1.67;;
10939;SDS011;5522;42.696;23.494;2023-07-22T14:58:40;19.35;;;2.50;;
10939;SDS011;5522;42.696;23.494;2023-07-22T15:01:07;18.42;;;2.35;;
10939;SDS011;5522;42.696;23.494;2023-07-22T15:03:34;11.02;;;1.75;;